createdAt,value
2023-05-04T07:31:55.057Z,99.90
2023-05-04T07:34:30.223Z,99.90
2023-05-04T07:37:03.628Z,99.90
2023-05-04T07:39:31.191Z,99.90
2023-05-04T07:41:58.343Z,99.90
2023-05-04T07:44:25.576Z,99.90
2023-05-04T07:46:52.724Z,99.90
2023-05-04T07:49:19.874Z,99.90
2023-05-04T07:51:47.067Z,99.90
2023-05-04T07:54:15.936Z,99.90
2023-05-04T07:56:43.035Z,99.90
2023-05-04T07:59:10.521Z,99.90
2023-05-04T08:01:37.766Z,99.90
2023-05-04T08:04:05.194Z,99.90
2023-05-04T08:06:33.974Z,99.90
2023-05-04T08:09:01.155Z,99.90
2023-05-04T08:11:28.361Z,99.90
2023-05-04T08:13:55.685Z,99.90
2023-05-04T08:16:23.032Z,99.90
2023-05-04T08:18:50.155Z,99.90
2023-05-04T08:21:17.358Z,99.90
2023-05-04T08:23:44.566Z,99.90
2023-05-04T08:26:11.825Z,99.90
2023-05-04T08:28:40.395Z,99.90
2023-05-04T08:31:08.221Z,99.90
2023-05-04T08:33:35.756Z,99.90
2023-05-04T08:36:07.371Z,99.90
2023-05-04T08:38:34.703Z,99.90
2023-05-04T08:41:06.427Z,99.90
2023-05-04T08:43:38.392Z,99.90
2023-05-04T08:46:06.956Z,99.90
2023-05-04T08:48:35.033Z,99.90
2023-05-04T08:51:04.700Z,99.90
2023-05-04T08:53:32.828Z,99.90
2023-05-04T08:56:04.584Z,99.90
2023-05-04T08:58:33.196Z,99.90
2023-05-04T09:01:01.786Z,99.90
2023-05-04T09:03:30.372Z,99.90
2023-05-04T09:06:02.796Z,99.90
2023-05-04T09:08:30.042Z,99.90
2023-05-04T09:10:57.262Z,99.90
2023-05-04T09:13:24.608Z,99.90
2023-05-04T09:15:56.007Z,99.90
2023-05-04T09:18:23.669Z,99.90
2023-05-04T09:20:51.110Z,99.90
2023-05-04T09:23:18.854Z,99.90
2023-05-04T09:25:48.931Z,99.90
2023-05-04T09:28:17.663Z,99.90
2023-05-04T09:30:48.357Z,99.90
2023-05-04T09:33:27.636Z,99.90
2023-05-04T09:35:55.757Z,99.90
2023-05-04T09:38:31.745Z,99.90
2023-05-04T09:40:59.003Z,99.90
2023-05-04T09:43:26.266Z,99.90
2023-05-04T09:45:53.945Z,99.90
2023-05-04T09:48:27.165Z,99.90
2023-05-04T09:50:54.765Z,99.90
2023-05-04T09:53:25.337Z,99.90
2023-05-04T09:55:55.570Z,99.90
2023-05-04T09:58:24.738Z,99.90
2023-05-04T10:00:53.981Z,99.90
2023-05-04T10:03:22.700Z,99.90
2023-05-04T10:05:51.049Z,99.90
2023-05-04T10:08:19.521Z,99.90
2023-05-04T10:10:46.755Z,99.90
2023-05-04T10:13:14.144Z,99.90
2023-05-04T10:15:50.335Z,99.90
2023-05-04T10:18:41.503Z,99.90
2023-05-04T10:21:20.627Z,99.90
2023-05-04T10:24:03.258Z,99.90
2023-05-04T10:26:59.553Z,99.90
2023-05-04T10:29:29.272Z,99.90
2023-05-04T10:31:57.114Z,99.90
2023-05-04T10:34:35.151Z,99.90
2023-05-04T10:37:04.285Z,98.50
2023-05-04T10:39:33.167Z,98.40
2023-05-04T10:42:07.902Z,97.60
2023-05-04T10:44:48.779Z,99.30
2023-05-04T10:47:16.180Z,99.90
2023-05-04T10:49:43.442Z,94.80
2023-05-04T10:52:13.387Z,95.50
2023-05-04T10:54:42.773Z,97.20
2023-05-04T10:57:12.692Z,94.00
2023-05-04T10:59:41.411Z,97.10
2023-05-04T11:02:09.322Z,95.50
2023-05-04T11:04:38.080Z,97.10
2023-05-04T11:07:06.944Z,96.00
2023-05-04T11:09:39.103Z,97.70
2023-05-04T11:12:07.333Z,92.70
2023-05-04T11:14:40.905Z,93.50
2023-05-04T11:17:23.890Z,94.80
2023-05-04T11:19:55.282Z,93.80
2023-05-04T11:22:25.201Z,94.60
2023-05-04T11:24:54.246Z,93.90
2023-05-04T11:27:23.563Z,94.70
2023-05-04T11:29:59.296Z,94.60
2023-05-04T11:32:40.107Z,96.40
2023-05-04T11:35:23.004Z,93.10
2023-05-04T11:37:50.629Z,93.50
2023-05-04T11:40:23.349Z,91.90
2023-05-04T11:42:51.711Z,94.60
2023-05-04T11:45:21.469Z,93.70
2023-05-04T11:47:50.245Z,95.00
2023-05-04T11:50:19.747Z,91.80
2023-05-04T11:52:47.911Z,91.50
2023-05-04T11:55:29.253Z,90.40
2023-05-04T11:58:04.631Z,90.70
2023-05-04T12:00:40.701Z,77.00
2023-05-04T12:03:09.787Z,80.50
2023-05-04T12:05:37.502Z,72.60
2023-05-04T12:08:07.380Z,73.80
2023-05-04T12:10:35.456Z,71.50
2023-05-04T12:13:02.937Z,67.20
2023-05-04T12:15:37.303Z,66.90
2023-05-04T12:18:04.658Z,64.00
2023-05-04T12:20:32.060Z,64.60
2023-05-04T12:23:06.765Z,63.80
2023-05-04T12:25:34.524Z,65.80
2023-05-04T12:28:04.636Z,62.60
2023-05-04T12:30:32.349Z,60.10
2023-05-04T12:32:59.698Z,62.00
2023-05-04T12:35:27.112Z,57.70
2023-05-04T12:37:54.289Z,60.90
2023-05-04T12:40:28.611Z,66.10
2023-05-04T12:42:56.369Z,63.10
2023-05-04T12:45:23.632Z,63.50
2023-05-04T12:47:50.993Z,69.70
2023-05-04T12:50:18.662Z,65.70
2023-05-04T12:52:45.940Z,70.50
2023-05-04T12:55:13.327Z,69.20
2023-05-04T12:57:42.454Z,60.90
2023-05-04T13:00:10.498Z,62.40
2023-05-04T13:02:38.563Z,59.30
2023-05-04T13:05:08.150Z,58.40
2023-05-04T13:07:35.528Z,54.50
2023-05-04T13:10:02.707Z,55.70
2023-05-04T13:12:30.011Z,51.50
2023-05-04T13:14:58.109Z,49.00
2023-05-04T13:17:25.790Z,50.00
2023-05-04T13:19:52.966Z,51.80
2023-05-04T13:22:20.209Z,51.00
2023-05-04T13:24:47.416Z,49.30
2023-05-04T13:27:14.650Z,50.30
2023-05-04T13:29:41.957Z,49.00
2023-05-04T13:32:09.012Z,51.30
2023-05-04T13:34:36.301Z,46.70
2023-05-04T13:37:03.653Z,48.80
2023-05-04T13:39:30.921Z,48.90
2023-05-04T13:41:58.082Z,48.70
2023-05-04T13:44:25.172Z,46.60
2023-05-04T13:46:52.354Z,44.40
2023-05-04T13:49:19.533Z,46.50
2023-05-04T13:51:47.425Z,43.40
2023-05-04T13:54:14.535Z,42.30
2023-05-04T13:56:42.534Z,45.10
2023-05-04T13:59:09.842Z,44.80
2023-05-04T14:01:37.443Z,45.00
2023-05-04T14:04:05.027Z,45.90
2023-05-04T14:06:33.085Z,42.60
2023-05-04T14:09:00.572Z,46.70
2023-05-04T14:11:28.073Z,46.80
2023-05-04T14:13:56.242Z,48.20
2023-05-04T14:16:23.826Z,46.10
2023-05-04T14:18:51.192Z,46.70
2023-05-04T14:21:18.341Z,45.90
2023-05-04T14:23:46.485Z,47.10
2023-05-04T14:26:13.726Z,44.50
2023-05-04T14:28:41.194Z,47.50
2023-05-04T14:31:10.993Z,44.80
2023-05-04T14:33:40.630Z,43.90
2023-05-04T14:36:08.863Z,45.60
2023-05-04T14:38:36.283Z,45.50
2023-05-04T14:41:07.712Z,46.70
2023-05-04T14:43:35.017Z,47.00
2023-05-04T14:46:03.242Z,45.90
2023-05-04T14:48:30.463Z,43.50
2023-05-04T14:50:57.889Z,45.60
2023-05-04T14:53:25.193Z,44.50
2023-05-04T14:55:52.452Z,45.40
2023-05-04T14:58:20.079Z,43.30
2023-05-04T15:00:47.501Z,41.40
2023-05-04T15:03:14.757Z,44.10
2023-05-04T15:05:42.210Z,43.90
2023-05-04T15:08:09.452Z,43.10
2023-05-04T15:10:37.701Z,43.90
2023-05-04T15:13:05.019Z,42.50
2023-05-04T15:15:32.695Z,41.00
2023-05-04T15:18:00.096Z,42.80
2023-05-04T15:20:27.938Z,43.60
2023-05-04T15:22:55.065Z,41.40
2023-05-04T15:25:24.108Z,42.00
2023-05-04T15:27:51.307Z,45.50
2023-05-04T15:30:19.098Z,41.50
2023-05-04T15:32:46.451Z,44.20
2023-05-04T15:35:14.259Z,44.00
2023-05-04T15:37:41.532Z,44.90
2023-05-04T15:40:09.626Z,44.40
2023-05-04T15:42:42.022Z,48.80
2023-05-04T15:45:10.751Z,50.80
2023-05-04T15:47:38.498Z,51.20
2023-05-04T15:50:06.814Z,54.00
2023-05-04T15:52:34.332Z,53.30
2023-05-04T15:55:12.327Z,55.90
2023-05-04T15:57:44.285Z,54.30
2023-05-04T16:00:12.768Z,55.80
2023-05-04T16:02:39.993Z,54.50
2023-05-04T16:05:07.592Z,56.30
2023-05-04T16:07:34.956Z,56.50
2023-05-04T16:10:03.282Z,56.70
2023-05-04T16:12:30.567Z,54.50
2023-05-04T16:14:57.752Z,56.40
2023-05-04T16:17:26.161Z,55.30
2023-05-04T16:19:53.649Z,55.20
2023-05-04T16:22:21.104Z,56.40
2023-05-04T16:24:48.456Z,56.30
2023-05-04T16:27:16.561Z,55.60
2023-05-04T16:29:44.881Z,58.40
2023-05-04T16:32:12.647Z,56.70
2023-05-04T16:34:39.872Z,57.90
2023-05-04T16:37:08.967Z,62.40
2023-05-04T16:39:38.321Z,64.30
2023-05-04T16:42:06.947Z,61.00
2023-05-04T16:44:34.297Z,61.30
2023-05-04T16:47:01.513Z,61.00
2023-05-04T16:49:29.849Z,59.40
2023-05-04T16:51:57.298Z,65.00
2023-05-04T16:54:24.695Z,61.30
2023-05-04T16:56:52.680Z,62.80
2023-05-04T16:59:19.936Z,66.00
2023-05-04T17:01:47.864Z,61.30
2023-05-04T17:04:15.161Z,62.60
2023-05-04T17:06:42.402Z,66.30
2023-05-04T17:09:10.246Z,66.10
2023-05-04T17:11:37.813Z,65.70
2023-05-04T17:14:05.047Z,64.70
2023-05-04T17:16:32.443Z,67.80
2023-05-04T17:19:00.039Z,66.80
2023-05-04T17:21:27.391Z,72.00
2023-05-04T17:23:54.619Z,67.60
2023-05-04T17:26:22.063Z,69.70
2023-05-04T17:28:49.432Z,69.90
2023-05-04T17:31:16.788Z,72.40
2023-05-04T17:33:44.197Z,73.30
2023-05-04T17:36:12.386Z,72.60
2023-05-04T17:38:40.982Z,75.30
2023-05-04T17:41:10.106Z,72.40
2023-05-04T17:43:37.492Z,73.50
2023-05-04T17:46:04.963Z,72.80
2023-05-04T17:48:32.382Z,74.10
2023-05-04T17:51:00.220Z,76.70
2023-05-04T17:53:28.880Z,75.70
2023-05-04T17:55:56.399Z,78.30
2023-05-04T17:58:23.786Z,81.30
2023-05-04T18:00:53.012Z,84.40
2023-05-04T18:03:20.898Z,85.90
2023-05-04T18:05:48.361Z,88.20
2023-05-04T18:08:15.885Z,88.80
2023-05-04T18:10:43.142Z,89.60
2023-05-04T18:13:10.556Z,90.20
2023-05-04T18:15:37.821Z,90.60
2023-05-04T18:18:05.932Z,91.20
2023-05-04T18:20:33.240Z,91.20
2023-05-04T18:23:00.711Z,90.80
2023-05-04T18:25:27.954Z,90.50
2023-05-04T18:27:55.756Z,90.80
2023-05-04T18:30:22.963Z,90.40
2023-05-04T18:32:50.454Z,90.80
2023-05-04T18:35:17.652Z,91.00
2023-05-04T18:37:45.230Z,90.80
2023-05-04T18:40:13.362Z,90.90
2023-05-04T18:42:40.938Z,90.20
2023-05-04T18:45:10.411Z,88.90
2023-05-04T18:47:38.008Z,89.60
2023-05-04T18:50:06.301Z,90.00
2023-05-04T18:52:34.117Z,88.00
2023-05-04T18:55:01.375Z,88.20
2023-05-04T18:57:30.140Z,89.00
2023-05-04T18:59:57.770Z,89.90
2023-05-04T19:02:26.699Z,90.60
2023-05-04T19:04:53.937Z,91.10
2023-05-04T19:07:21.380Z,91.40
2023-05-04T19:09:48.605Z,91.80
2023-05-04T19:12:16.037Z,91.70
2023-05-04T19:14:44.141Z,91.20
2023-05-04T19:17:11.863Z,91.30
2023-05-04T19:19:39.393Z,91.30
2023-05-04T19:22:07.597Z,91.20
2023-05-04T19:24:36.332Z,91.50
2023-05-04T19:27:04.705Z,92.00
2023-05-04T19:29:32.405Z,92.50
2023-05-04T19:32:03.343Z,92.70
2023-05-04T19:34:33.874Z,92.40
2023-05-04T19:37:01.144Z,92.80
2023-05-04T19:39:28.374Z,93.20
2023-05-04T19:41:55.782Z,93.50
2023-05-04T19:44:23.045Z,93.60
2023-05-04T19:46:51.867Z,93.10
2023-05-04T19:49:19.936Z,93.40
2023-05-04T19:51:48.277Z,93.60
2023-05-04T19:54:15.936Z,93.60
2023-05-04T19:56:43.253Z,93.70
2023-05-04T19:59:10.931Z,94.30
2023-05-04T20:01:38.219Z,94.20
2023-05-04T20:04:08.413Z,93.90
2023-05-04T20:06:36.696Z,94.00
2023-05-04T20:09:04.507Z,94.00
2023-05-04T20:11:31.979Z,94.60
2023-05-04T20:13:59.944Z,94.50
2023-05-04T20:16:27.394Z,94.60
2023-05-04T20:18:54.638Z,94.90
2023-05-04T20:21:21.875Z,94.50
2023-05-04T20:23:49.149Z,95.20
2023-05-04T20:26:16.870Z,94.80
2023-05-04T20:28:44.355Z,95.20
2023-05-04T20:31:12.294Z,95.00
2023-05-04T20:33:39.516Z,95.30
2023-05-04T20:36:07.596Z,95.30
2023-05-04T20:38:34.912Z,95.10
2023-05-04T20:41:09.489Z,95.30
2023-05-04T20:43:36.817Z,95.00
2023-05-04T20:46:04.750Z,94.60
2023-05-04T20:48:32.346Z,94.50
2023-05-04T20:51:12.740Z,94.40
2023-05-04T20:53:41.641Z,94.30
2023-05-04T20:56:09.198Z,94.40
2023-05-04T20:58:36.507Z,94.40
2023-05-04T21:01:05.073Z,94.30
2023-05-04T21:03:33.105Z,94.30
2023-05-04T21:06:02.200Z,94.30
2023-05-04T21:08:29.442Z,94.60
2023-05-04T21:10:56.753Z,94.30
2023-05-04T21:13:24.423Z,94.00
2023-05-04T21:15:51.735Z,93.70
2023-05-04T21:18:19.752Z,94.10
2023-05-04T21:20:47.358Z,94.50
2023-05-04T21:23:14.521Z,94.20
2023-05-04T21:25:42.331Z,94.10
2023-05-04T21:28:09.638Z,94.20
2023-05-04T21:30:40.360Z,94.50
2023-05-04T21:33:07.633Z,94.40
